createdAt,value
2018-03-30T00:02:18.027Z,96877.73
2018-03-30T00:04:45.521Z,96878.34
2018-03-30T00:07:12.966Z,96872.45
2018-03-30T00:09:52.237Z,96876.74
2018-03-30T00:12:19.659Z,96872.94
2018-03-30T00:14:47.120Z,96871.61
2018-03-30T00:17:14.545Z,96867.72
2018-03-30T00:19:41.997Z,96869.16
2018-03-30T00:22:09.450Z,96863.97
2018-03-30T00:24:36.972Z,96860.95
2018-03-30T00:27:04.544Z,96863.53
2018-03-30T00:29:32.129Z,96856.64
2018-03-30T00:31:59.723Z,96859.59
2018-03-30T00:34:27.193Z,96856.69
2018-03-30T00:36:54.622Z,96852.54
2018-03-30T00:39:22.087Z,96849.55
2018-03-30T00:41:49.544Z,96855.80
2018-03-30T00:44:16.973Z,96858.33
2018-03-30T00:46:44.420Z,96850.55
2018-03-30T00:49:11.860Z,96848.18
2018-03-30T00:51:39.313Z,96847.73
2018-03-30T00:54:06.737Z,96846.42
2018-03-30T00:56:34.191Z,96838.96
2018-03-30T00:59:01.648Z,96839.08
2018-03-30T01:01:29.097Z,96831.37
2018-03-30T01:03:56.562Z,96824.91
2018-03-30T01:06:24.348Z,96819.78
2018-03-30T01:08:51.880Z,96817.52
2018-03-30T01:11:19.321Z,96819.31
2018-03-30T01:13:47.802Z,96821.38
2018-03-30T01:16:15.336Z,96818.26
2018-03-30T01:18:42.924Z,96817.22
2018-03-30T01:21:10.518Z,96814.00
2018-03-30T01:23:38.104Z,96806.30
2018-03-30T01:26:05.812Z,96809.53
2018-03-30T01:28:33.246Z,96811.33
2018-03-30T01:31:00.723Z,96808.73
2018-03-30T01:33:28.204Z,96796.00
2018-03-30T01:35:55.718Z,96792.34
2018-03-30T01:38:23.135Z,96785.81
2018-03-30T01:40:50.601Z,96794.84
2018-03-30T01:43:18.033Z,96792.14
2018-03-30T01:45:45.454Z,96799.41
2018-03-30T01:48:12.931Z,96811.92
2018-03-30T01:50:40.358Z,96812.97
2018-03-30T01:53:08.220Z,96816.95
2018-03-30T01:55:35.638Z,96809.76
2018-03-30T01:58:03.171Z,96809.11
2018-03-30T02:00:30.628Z,96803.02
2018-03-30T02:02:58.606Z,96799.33
2018-03-30T02:05:26.047Z,96787.79
2018-03-30T02:07:53.512Z,96788.19
2018-03-30T02:10:21.462Z,96782.84
2018-03-30T02:12:48.899Z,96788.56
2018-03-30T02:15:16.468Z,96792.64
2018-03-30T02:17:43.909Z,96791.92
2018-03-30T02:20:11.759Z,96788.16
2018-03-30T02:22:39.279Z,96785.88
2018-03-30T02:25:06.748Z,96775.34
2018-03-30T02:27:34.210Z,96775.83
2018-03-30T02:30:01.671Z,96768.36
2018-03-30T02:32:29.111Z,96764.91
2018-03-30T02:34:57.457Z,96764.48
2018-03-30T02:37:24.958Z,96768.89
2018-03-30T02:39:52.428Z,96765.02
2018-03-30T02:42:19.957Z,96763.36
2018-03-30T02:44:47.430Z,96761.78
2018-03-30T02:47:14.884Z,96762.40
2018-03-30T02:49:43.294Z,96748.98
2018-03-30T02:52:10.756Z,96749.97
2018-03-30T02:54:38.185Z,96751.81
2018-03-30T02:57:05.667Z,96751.80
2018-03-30T02:59:33.162Z,96746.91
2018-03-30T03:02:00.699Z,96746.83
2018-03-30T03:04:28.154Z,96752.31
2018-03-30T03:06:55.639Z,96749.38
2018-03-30T03:09:23.101Z,96742.55
2018-03-30T03:11:50.533Z,96742.86
2018-03-30T03:14:18.011Z,96739.86
2018-03-30T03:16:45.448Z,96736.02
2018-03-30T03:19:13.557Z,96741.34
2018-03-30T03:21:41.014Z,96739.23
2018-03-30T03:24:08.448Z,96744.86
2018-03-30T03:26:35.940Z,96738.83
2018-03-30T03:29:03.415Z,96735.30
2018-03-30T03:31:30.864Z,96735.67
2018-03-30T03:33:58.299Z,96733.56
2018-03-30T03:36:25.769Z,96732.63
2018-03-30T03:38:53.206Z,96722.64
2018-03-30T03:41:20.645Z,96724.98
2018-03-30T03:43:48.104Z,96717.98
2018-03-30T03:46:15.542Z,96717.94
2018-03-30T03:48:42.993Z,96707.41
2018-03-30T03:51:10.440Z,96707.34
2018-03-30T03:53:37.974Z,96709.06
2018-03-30T03:56:05.394Z,96710.39
2018-03-30T03:58:32.859Z,96691.58
2018-03-30T04:01:00.296Z,96696.90
2018-03-30T04:03:27.764Z,96692.05
2018-03-30T04:05:55.243Z,96691.05
2018-03-30T04:08:22.688Z,96692.98
2018-03-30T04:10:50.142Z,96698.17
2018-03-30T04:13:17.718Z,96697.38
2018-03-30T04:15:45.282Z,96694.79
2018-03-30T04:18:12.766Z,96697.58
2018-03-30T04:20:40.261Z,96694.13
2018-03-30T04:23:07.696Z,96694.84
2018-03-30T04:25:35.197Z,96688.46
2018-03-30T04:28:02.732Z,96683.53
2018-03-30T04:30:30.198Z,96681.89
2018-03-30T04:32:57.676Z,96676.69
2018-03-30T04:35:25.112Z,96679.80
2018-03-30T04:37:52.597Z,96674.03
2018-03-30T04:40:20.039Z,96675.61
2018-03-30T04:42:47.556Z,96670.62
2018-03-30T04:45:15.241Z,96677.74
2018-03-30T04:47:43.006Z,96680.84
2018-03-30T04:50:10.462Z,96682.20
2018-03-30T04:52:37.896Z,96691.36
2018-03-30T04:55:05.364Z,96690.52
2018-03-30T04:57:32.794Z,96694.47
2018-03-30T05:00:00.279Z,96682.80
2018-03-30T05:02:27.736Z,96683.21
2018-03-30T05:04:55.331Z,96686.34
2018-03-30T05:07:22.990Z,96687.98
2018-03-30T05:09:50.530Z,96683.20
2018-03-30T05:12:18.116Z,96673.77
2018-03-30T05:14:45.647Z,96675.62
2018-03-30T05:17:13.111Z,96676.49
2018-03-30T05:19:40.605Z,96676.43
2018-03-30T05:22:08.292Z,96661.90
2018-03-30T05:24:35.748Z,96657.92
2018-03-30T05:27:03.187Z,96645.08
2018-03-30T05:29:30.663Z,96649.61
2018-03-30T05:31:58.097Z,96648.08
2018-03-30T05:34:26.579Z,96650.73
2018-03-30T05:36:54.064Z,96648.41
2018-03-30T05:39:21.578Z,96645.86
2018-03-30T05:41:49.123Z,96649.47
2018-03-30T05:44:16.631Z,96660.08
2018-03-30T05:46:44.097Z,96654.54
2018-03-30T05:49:11.553Z,96651.80
2018-03-30T05:51:39.030Z,96649.94
2018-03-30T05:54:06.469Z,96651.83
2018-03-30T05:56:33.930Z,96645.30
2018-03-30T05:59:01.435Z,96638.55
2018-03-30T06:01:29.009Z,96632.39
2018-03-30T06:03:56.535Z,96635.69
2018-03-30T06:06:24.118Z,96649.13
2018-03-30T06:08:51.703Z,96644.23
2018-03-30T06:11:19.393Z,96633.48
2018-03-30T06:13:46.844Z,96633.55
2018-03-30T06:16:14.315Z,96622.83
2018-03-30T06:18:41.800Z,96627.30
2018-03-30T06:21:09.232Z,96620.84
2018-03-30T06:23:36.695Z,96627.05
2018-03-30T06:26:04.129Z,96621.39
2018-03-30T06:28:31.615Z,96617.59
2018-03-30T06:30:59.042Z,96611.53
2018-03-30T06:33:26.514Z,96610.13
2018-03-30T06:35:53.957Z,96623.20
2018-03-30T06:38:22.897Z,96625.92
2018-03-30T06:40:50.414Z,96625.50
2018-03-30T06:43:17.935Z,96612.58
2018-03-30T06:45:45.488Z,96614.06
2018-03-30T06:48:12.929Z,96626.91
2018-03-30T06:50:40.399Z,96626.59
2018-03-30T06:53:08.103Z,96627.77
2018-03-30T06:55:35.757Z,96626.25
2018-03-30T06:58:03.193Z,96616.91
2018-03-30T07:00:30.663Z,96616.17
2018-03-30T07:02:58.101Z,96606.58
2018-03-30T07:05:25.901Z,96605.92
2018-03-30T07:07:53.374Z,96608.08
2018-03-30T07:10:20.845Z,96597.59
2018-03-30T07:12:48.424Z,96599.21
2018-03-30T07:15:15.875Z,96596.23
2018-03-30T07:17:43.366Z,96595.78
2018-03-30T07:20:10.781Z,96594.83
2018-03-30T07:22:38.254Z,96596.76
2018-03-30T07:25:05.713Z,96595.72
2018-03-30T07:27:33.804Z,96588.43
2018-03-30T07:30:01.291Z,96582.27
2018-03-30T07:32:28.786Z,96568.38
2018-03-30T07:34:56.363Z,96570.17
2018-03-30T07:37:24.101Z,96551.94
2018-03-30T07:39:51.553Z,96536.91
2018-03-30T07:42:19.138Z,96551.03
2018-03-30T07:44:46.609Z,96537.34
2018-03-30T07:47:14.091Z,96541.52
2018-03-30T07:49:41.583Z,96536.97
2018-03-30T07:52:09.501Z,96534.66
2018-03-30T07:54:36.962Z,96532.72
2018-03-30T07:57:04.390Z,96523.22
2018-03-30T07:59:31.843Z,96523.98
2018-03-30T08:01:59.278Z,96514.31
2018-03-30T08:04:26.743Z,96500.75
2018-03-30T08:06:54.242Z,96494.53
2018-03-30T08:09:21.708Z,96492.54
2018-03-30T08:11:49.241Z,96484.12
2018-03-30T08:14:16.687Z,96480.50
2018-03-30T08:16:44.156Z,96482.86
2018-03-30T08:19:11.663Z,96485.16
2018-03-30T08:21:39.130Z,96476.94
2018-03-30T08:24:06.560Z,96475.39
2018-03-30T08:26:34.088Z,96471.09
2018-03-30T08:29:02.485Z,96465.02
2018-03-30T08:31:29.976Z,96456.91
2018-03-30T08:33:57.581Z,96452.08
2018-03-30T08:36:25.228Z,96449.75
2018-03-30T08:38:53.178Z,96444.66
2018-03-30T08:41:20.621Z,96439.66
2018-03-30T08:43:48.497Z,96442.70
2018-03-30T08:46:15.925Z,96446.41
2018-03-30T08:48:43.393Z,96440.91
2018-03-30T08:51:10.840Z,96430.02
2018-03-30T08:53:38.309Z,96429.65
2018-03-30T08:56:05.761Z,96423.13
2018-03-30T08:58:33.183Z,96429.78
2018-03-30T09:01:00.675Z,96424.59
2018-03-30T09:03:28.643Z,96419.89
2018-03-30T09:05:56.181Z,96413.95
2018-03-30T09:08:23.616Z,96416.47
2018-03-30T09:10:51.541Z,96417.18
2018-03-30T09:13:18.992Z,96415.31
2018-03-30T09:15:46.467Z,96406.06
2018-03-30T09:18:13.925Z,96394.61
2018-03-30T09:20:41.364Z,96386.97
2018-03-30T09:23:08.827Z,96385.52
2018-03-30T09:25:36.248Z,96383.06
2018-03-30T09:28:03.709Z,96373.78
2018-03-30T09:30:31.301Z,96367.98
2018-03-30T09:32:58.892Z,96362.73
2018-03-30T09:35:26.360Z,96357.98
2018-03-30T09:37:53.781Z,96344.92
2018-03-30T09:40:21.414Z,96332.95
2018-03-30T09:42:48.919Z,96324.75
2018-03-30T09:45:16.365Z,96325.88
2018-03-30T09:47:43.782Z,96325.32
2018-03-30T09:50:11.242Z,96335.02
2018-03-30T09:52:38.660Z,96324.22
2018-03-30T09:55:06.110Z,96317.88
2018-03-30T09:57:33.535Z,96319.80
2018-03-30T10:00:02.339Z,96315.19
2018-03-30T10:02:31.050Z,96300.05
2018-03-30T10:05:01.463Z,96294.34
2018-03-30T10:07:28.935Z,96291.41
2018-03-30T10:09:56.617Z,96280.13
2018-03-30T10:12:24.162Z,96273.38
2018-03-30T10:14:51.821Z,96268.56
2018-03-30T10:17:19.308Z,96255.77
2018-03-30T10:19:46.727Z,96241.05
2018-03-30T10:22:14.212Z,96240.47
2018-03-30T10:24:41.623Z,96241.11
2018-03-30T10:27:09.089Z,96242.61
2018-03-30T10:29:36.526Z,96236.48
2018-03-30T10:32:04.007Z,96233.49
2018-03-30T10:34:31.590Z,96224.60
2018-03-30T10:36:59.037Z,96217.22
2018-03-30T10:39:26.482Z,96208.02
2018-03-30T10:41:53.943Z,96207.39
2018-03-30T10:44:21.398Z,96197.66
2018-03-30T10:46:48.860Z,96196.39
2018-03-30T10:49:16.309Z,96187.84
2018-03-30T10:51:43.781Z,96187.88
2018-03-30T10:54:11.258Z,96177.39
2018-03-30T10:56:38.855Z,96187.67
2018-03-30T10:59:06.564Z,96179.08
2018-03-30T11:01:34.044Z,96175.40
2018-03-30T11:04:01.849Z,96184.22
2018-03-30T11:06:29.923Z,96177.63
2018-03-30T11:08:58.131Z,96176.50
2018-03-30T11:11:26.004Z,96179.56
2018-03-30T11:13:54.175Z,96171.61
2018-03-30T11:16:21.603Z,96169.62
2018-03-30T11:18:49.150Z,96163.08
2018-03-30T11:21:16.663Z,96165.18
2018-03-30T11:23:44.419Z,96162.28
2018-03-30T11:26:11.950Z,96161.80
2018-03-30T11:28:39.455Z,96164.88
2018-03-30T11:31:07.004Z,96156.66
2018-03-30T11:33:34.477Z,96156.38
2018-03-30T11:36:02.044Z,96158.30
2018-03-30T11:38:29.476Z,96159.10
2018-03-30T11:40:56.933Z,96151.61
2018-03-30T11:43:24.393Z,96148.74
2018-03-30T11:45:51.838Z,96149.84
2018-03-30T11:48:19.346Z,96151.55
2018-03-30T11:50:46.849Z,96147.58
2018-03-30T11:53:14.290Z,96145.77
2018-03-30T11:55:42.115Z,96135.80
2018-03-30T11:58:10.148Z,96130.48
2018-03-30T12:00:38.667Z,96123.30
2018-03-30T12:03:06.428Z,96114.52
2018-03-30T12:05:34.415Z,96130.95
2018-03-30T12:08:02.252Z,96129.77
2018-03-30T12:10:29.750Z,96120.28
2018-03-30T12:12:57.624Z,96114.34
2018-03-30T12:15:25.442Z,96106.95
2018-03-30T12:17:53.418Z,96104.95
2018-03-30T12:20:21.356Z,96100.54
2018-03-30T12:22:49.344Z,96092.05
2018-03-30T12:25:16.827Z,96088.74
2018-03-30T12:27:44.291Z,96075.74
2018-03-30T12:30:11.730Z,96066.55
2018-03-30T12:32:39.190Z,96058.52
2018-03-30T12:35:06.723Z,96058.05
2018-03-30T12:37:34.185Z,96049.83
2018-03-30T12:40:01.671Z,96046.15
2018-03-30T12:42:29.272Z,96050.73
2018-03-30T12:44:56.857Z,96044.68
2018-03-30T12:47:24.277Z,96027.14
2018-03-30T12:49:51.926Z,96022.91
2018-03-30T12:52:20.081Z,96009.69
2018-03-30T12:54:47.541Z,95999.52
2018-03-30T12:57:15.329Z,96000.28
2018-03-30T12:59:42.787Z,95996.52
2018-03-30T13:02:10.217Z,96002.46
2018-03-30T13:04:37.734Z,95989.11
2018-03-30T13:07:05.219Z,95985.43
2018-03-30T13:09:32.944Z,95989.12
2018-03-30T13:12:00.401Z,95996.27
2018-03-30T13:14:27.904Z,95993.16
2018-03-30T13:16:55.539Z,95998.20
2018-03-30T13:19:23.094Z,95997.92
2018-03-30T13:21:50.571Z,95994.41
2018-03-30T13:24:17.999Z,95988.79
2018-03-30T13:26:45.457Z,95968.77
2018-03-30T13:29:12.877Z,95957.84
2018-03-30T13:31:40.378Z,95952.95
2018-03-30T13:34:07.820Z,95962.55
2018-03-30T13:36:35.729Z,95952.09
2018-03-30T13:39:03.147Z,95943.40
2018-03-30T13:41:30.612Z,95944.78
2018-03-30T13:43:58.063Z,95939.69
2018-03-30T13:46:25.489Z,95931.34
2018-03-30T13:48:53.007Z,95925.60
2018-03-30T13:51:40.113Z,95919.27
2018-03-30T13:54:09.273Z,95908.76
2018-03-30T13:56:51.358Z,95901.03
2018-03-30T13:59:23.576Z,95904.22
2018-03-30T14:05:22.160Z,95871.23
2018-03-30T14:07:52.562Z,95854.25
2018-03-30T14:10:26.094Z,95843.34
2018-03-30T14:12:53.603Z,95842.98
2018-03-30T14:15:23.892Z,95834.58
2018-03-30T14:17:55.982Z,95834.98
2018-03-30T14:20:24.389Z,95830.84
2018-03-30T14:22:54.481Z,95823.59
2018-03-30T14:25:23.723Z,95824.34
2018-03-30T14:28:02.247Z,95807.25
2018-03-30T14:30:32.089Z,95798.88
2018-03-30T14:33:05.686Z,95796.56
2018-03-30T14:35:36.762Z,95798.80
2018-03-30T14:38:16.871Z,95799.84
2018-03-30T14:40:48.096Z,95795.25
2018-03-30T14:46:17.927Z,95791.91
2018-03-30T14:48:47.856Z,95771.67
2018-03-30T14:51:16.982Z,95781.05
2018-03-30T14:53:55.397Z,95781.34
2018-03-30T14:56:34.622Z,95778.63
2018-03-30T14:59:15.298Z,95774.12
2018-03-30T15:01:44.607Z,95763.99
2018-03-30T15:04:24.716Z,95749.99
2018-03-30T15:06:59.521Z,95748.05
2018-03-30T15:12:45.622Z,95740.12
2018-03-30T15:18:15.809Z,95741.09
2018-03-30T15:20:50.385Z,95759.78
2018-03-30T15:23:18.798Z,95768.52
2018-03-30T15:25:54.826Z,95775.87
2018-03-30T15:28:25.156Z,95777.53
2018-03-30T15:33:55.755Z,95776.55
2018-03-30T15:36:38.059Z,95775.11
2018-03-30T15:39:08.244Z,95784.47
2018-03-30T15:41:40.419Z,95784.05
2018-03-30T15:44:07.940Z,95776.70
2018-03-30T15:46:36.232Z,95781.72
2018-03-30T15:49:03.686Z,95784.90
2018-03-30T15:51:31.192Z,95780.00
2018-03-30T15:53:58.088Z,95780.97
2018-03-30T15:56:26.410Z,95774.74
2018-03-30T15:58:54.000Z,95769.15
2018-03-30T16:01:21.576Z,95774.38
2018-03-30T16:03:49.099Z,95775.00
2018-03-30T16:06:17.481Z,95767.34
2018-03-30T16:08:45.265Z,95772.84
2018-03-30T16:11:18.190Z,95776.09
2018-03-30T16:13:45.669Z,95760.78
2018-03-30T16:16:13.180Z,95752.09
2018-03-30T16:18:52.413Z,95749.61
2018-03-30T16:21:19.375Z,95750.53
2018-03-30T16:23:46.360Z,95754.08
2018-03-30T16:26:13.285Z,95755.25
2018-03-30T16:28:40.181Z,95754.31
2018-03-30T16:31:07.206Z,95744.66
2018-03-30T16:33:34.149Z,95749.13
2018-03-30T16:36:01.081Z,95743.97
2018-03-30T16:38:27.998Z,95749.44
2018-03-30T16:40:54.984Z,95750.84
2018-03-30T16:43:22.524Z,95744.30
2018-03-30T16:45:50.081Z,95748.94
2018-03-30T16:48:16.998Z,95751.50
2018-03-30T16:50:44.621Z,95754.48
2018-03-30T16:53:11.788Z,95760.97
2018-03-30T16:55:39.084Z,95768.30
2018-03-30T16:58:08.376Z,95771.43
2018-03-30T17:00:35.673Z,95776.98
2018-03-30T17:03:03.043Z,95788.45
2018-03-30T17:05:29.953Z,95796.83
2018-03-30T17:07:57.172Z,95808.75
2018-03-30T17:10:24.086Z,95816.69
2018-03-30T17:12:51.048Z,95827.22
2018-03-30T17:15:17.944Z,95842.03
2018-03-30T17:17:44.882Z,95849.44
2018-03-30T17:20:11.771Z,95869.20
2018-03-30T17:22:38.771Z,95892.94
2018-03-30T17:25:05.688Z,95902.56
2018-03-30T17:27:32.653Z,95900.50
2018-03-30T17:29:59.772Z,95905.28
2018-03-30T17:32:26.676Z,95914.09
2018-03-30T17:34:53.735Z,95920.14
2018-03-30T17:37:20.775Z,95919.58
2018-03-30T17:39:47.740Z,95920.48
2018-03-30T17:42:14.659Z,95931.84
2018-03-30T17:44:42.303Z,95940.82
2018-03-30T17:47:09.219Z,95950.41
2018-03-30T17:49:36.202Z,95952.40
2018-03-30T17:52:03.233Z,95955.83
2018-03-30T17:54:30.188Z,95951.16
2018-03-30T17:56:57.124Z,95955.31
2018-03-30T17:59:24.330Z,95953.34
2018-03-30T18:01:51.239Z,95952.30
2018-03-30T18:04:18.224Z,95960.31
2018-03-30T18:06:45.132Z,95971.11
2018-03-30T18:09:12.130Z,95966.58
2018-03-30T18:11:39.903Z,95961.61
2018-03-30T18:14:06.818Z,95968.16
2018-03-30T18:16:34.389Z,95969.67
2018-03-30T18:19:01.296Z,95968.81
2018-03-30T18:21:29.138Z,95981.75
2018-03-30T18:23:56.037Z,95979.92
2018-03-30T18:26:22.962Z,95982.23
2018-03-30T18:28:49.879Z,95978.05
2018-03-30T18:31:16.841Z,95986.03
2018-03-30T18:33:43.801Z,95990.02
2018-03-30T18:36:10.775Z,95990.13
2018-03-30T18:38:38.108Z,95995.17
2018-03-30T18:41:05.069Z,95993.95
2018-03-30T18:43:32.007Z,95992.37
2018-03-30T18:45:59.133Z,95993.23
2018-03-30T18:48:26.901Z,96001.25
2018-03-30T18:50:53.810Z,96004.06
2018-03-30T18:53:23.740Z,96012.28
2018-03-30T18:55:50.747Z,96032.73
2018-03-30T18:58:18.654Z,96042.19
2018-03-30T19:00:46.329Z,96050.31
2018-03-30T19:05:49.683Z,96058.09
2018-03-30T19:08:16.860Z,96062.75
2018-03-30T19:10:44.133Z,96049.62
2018-03-30T19:15:50.826Z,96033.56
2018-03-30T19:18:18.421Z,96014.31
2018-03-30T19:23:16.779Z,96045.56
2018-03-30T19:25:43.705Z,96049.31
2018-03-30T19:28:11.557Z,96051.73
2018-03-30T19:30:38.697Z,96042.47
2018-03-30T19:33:06.180Z,96049.88
2018-03-30T19:35:34.987Z,96053.03
2018-03-30T19:38:05.422Z,96053.33
2018-03-30T19:40:33.326Z,96042.12
2018-03-30T19:43:00.793Z,96054.30
2018-03-30T19:45:29.277Z,96062.42
2018-03-30T19:47:57.198Z,96065.38
2018-03-30T19:50:28.669Z,96073.80
2018-03-30T19:55:31.843Z,96073.56
2018-03-30T19:58:00.635Z,96078.63
2018-03-30T20:00:29.404Z,96080.28
2018-03-30T20:02:58.006Z,96082.73
2018-03-30T20:05:25.008Z,96066.19
2018-03-30T20:07:54.350Z,96048.06
2018-03-30T20:10:23.738Z,96053.57
2018-03-30T20:12:50.787Z,96053.70
2018-03-30T20:15:20.928Z,96046.22
2018-03-30T20:17:48.593Z,96030.36
2018-03-30T20:20:17.974Z,96031.96
2018-03-30T20:22:47.195Z,96023.47
2018-03-30T20:25:15.992Z,96020.34
2018-03-30T20:27:43.182Z,96031.25
2018-03-30T20:30:11.535Z,96030.53
2018-03-30T20:32:42.437Z,96025.13
2018-03-30T20:35:09.761Z,96024.13
2018-03-30T20:37:38.038Z,96032.28
2018-03-30T20:40:05.022Z,96035.11
2018-03-30T20:42:31.941Z,96037.02
2018-03-30T20:44:58.909Z,96036.48
2018-03-30T20:47:25.835Z,96038.06
2018-03-30T20:49:52.736Z,96038.69
2018-03-30T20:52:23.779Z,96038.81
2018-03-30T20:54:50.916Z,96049.01
2018-03-30T20:57:18.252Z,96056.45
2018-03-30T20:59:45.981Z,96067.66
2018-03-30T21:02:12.941Z,96068.87
2018-03-30T21:04:39.951Z,96071.43
2018-03-30T21:07:07.256Z,96079.58
2018-03-30T21:09:34.302Z,96076.96
2018-03-30T21:12:01.203Z,96069.20
2018-03-30T21:14:28.152Z,96065.63
2018-03-30T21:16:55.858Z,96067.27
2018-03-30T21:19:22.794Z,96065.16
2018-03-30T21:21:50.864Z,96069.55
2018-03-30T21:24:17.802Z,96069.34
2018-03-30T21:26:45.650Z,96069.92
2018-03-30T21:29:12.576Z,96074.00
2018-03-30T21:31:39.515Z,96076.53
2018-03-30T21:34:06.435Z,96091.34
2018-03-30T21:36:33.342Z,96097.50
2018-03-30T21:39:00.286Z,96096.41
2018-03-30T21:41:27.245Z,96097.89
2018-03-30T21:43:54.130Z,96093.58
2018-03-30T21:46:21.439Z,96096.68
2018-03-30T21:48:48.375Z,96098.23
2018-03-30T21:51:15.310Z,96099.72
2018-03-30T21:53:42.388Z,96103.64
2018-03-30T21:56:09.847Z,96108.02
2018-03-30T21:58:36.789Z,96109.11
2018-03-30T22:01:03.721Z,96101.14
2018-03-30T22:03:30.639Z,96099.41
2018-03-30T22:05:57.573Z,96097.44
2018-03-30T22:08:24.466Z,96094.74
2018-03-30T22:10:51.397Z,96091.83
2018-03-30T22:13:18.289Z,96090.18
2018-03-30T22:15:46.038Z,96089.86
2018-03-30T22:18:12.946Z,96090.55
2018-03-30T22:20:39.846Z,96085.86
2018-03-30T22:23:06.781Z,96089.28
2018-03-30T22:25:33.839Z,96094.47
2018-03-30T22:28:00.871Z,96091.80
2018-03-30T22:30:28.457Z,96089.88
2018-03-30T22:32:56.170Z,96078.34
2018-03-30T22:35:23.119Z,96077.58
2018-03-30T22:37:50.027Z,96089.11
2018-03-30T22:40:16.927Z,96089.65
2018-03-30T22:42:43.859Z,96082.03
2018-03-30T22:45:10.820Z,96084.77
2018-03-30T22:47:37.764Z,96082.93
2018-03-30T22:50:04.794Z,96085.67
2018-03-30T22:52:32.724Z,96080.27
2018-03-30T22:54:59.691Z,96081.16
2018-03-30T22:57:26.662Z,96080.08
2018-03-30T22:59:53.835Z,96079.85
2018-03-30T23:02:20.748Z,96077.67
2018-03-30T23:04:47.680Z,96077.38
2018-03-30T23:07:15.063Z,96085.92
2018-03-30T23:09:42.008Z,96074.53
2018-03-30T23:12:08.940Z,96065.92
2018-03-30T23:14:35.950Z,96071.05
2018-03-30T23:17:02.894Z,96066.81
2018-03-30T23:19:29.832Z,96061.59
2018-03-30T23:21:57.410Z,96058.66
2018-03-30T23:24:24.418Z,96049.45
2018-03-30T23:26:51.408Z,96046.66
2018-03-30T23:29:18.310Z,96043.09
2018-03-30T23:31:45.622Z,96042.72
2018-03-30T23:34:12.521Z,96037.60
2018-03-30T23:36:39.560Z,96030.33
2018-03-30T23:39:09.836Z,96034.14
2018-03-30T23:41:36.779Z,96043.03
2018-03-30T23:44:03.741Z,96049.67
2018-03-30T23:46:31.789Z,96047.02
2018-03-30T23:48:58.701Z,96045.28
2018-03-30T23:51:25.691Z,96044.08
2018-03-30T23:53:52.608Z,96048.43
2018-03-30T23:56:20.212Z,96048.89
2018-03-30T23:58:47.146Z,96045.17
